Flight Track Log - Related Links

Times and Time Zones

All times are in EDT time to prevent confusion due to time zone crossing. See the SWA1046 flight status page for this flight to view local times or setup timezone preferences in your user account.

Time Position Orientation Groundspeed Altitude Reporting Facility
EDT Latitude Longitude Course Direction KTS MPH feet Rate Location/Type
Sat 06:19:06 PM 39.8500 -104.7667 255° West 207 238 6,900  Level Denver TRACON
Sat 06:20:00 PM 39.8333 -104.8500 255° West 271 312 8,100 1,900 Climbing Denver TRACON
Sat 06:21:06 PM 39.8247 -104.9692 265° West 297 342 10,700 1,922 Climbing Denver Center
Sat 06:22:08 PM 39.8031 -105.0911 257° West 352 405 12,200 2,129 Climbing Denver Center
Sat 06:23:10 PM 39.7789 -105.2242 257° West 351 404 15,100 2,323 Climbing Denver Center
Sat 06:24:12 PM 39.7558 -105.3531 257° West 365 420 17,000 1,600 Climbing Denver Center
Sat 06:25:25 PM 39.7317 -105.4844 257° West 375 432 18,700 1,556 Climbing Denver Center
Sat 06:26:27 PM 39.7008 -105.6544 257° West 403 464 20,500 1,324 Climbing Denver Center
Sat 06:27:41 PM 39.6831 -105.8178 262° West 445 512 21,700 2,029 Climbing Denver Center
Sat 06:28:43 PM 39.6575 -106.0017 260° West 411 473 25,100 2,516 Climbing Denver Center
Sat 06:29:45 PM 39.6456 -106.1567 264° West 432 497 26,900 1,694 Climbing Denver Center
Sat 06:30:47 PM 39.6283 -106.2975 261° West 429 494 28,600 1,561 Climbing Denver Center
Sat 06:31:48 PM 39.5847 -106.4436 249° West 435 501 30,100 1,689 Climbing Denver Center
Sat 06:33:02 PM 39.5353 -106.5939 247° West 425 489 32,400 1,985 Climbing Denver Center
Sat 06:34:04 PM 39.4811 -106.7619 247° West 397 457 34,600 1,452 Climbing Denver Center
Sat 06:35:06 PM 39.4381 -106.8886 246° West 400 460 35,400 683 Climbing Denver Center
Sat 06:36:07 PM 39.3969 -107.0403 251° West 400 460 36,000 293 Climbing Denver Center
Sat 06:37:09 PM 39.3572 -107.1728 249° West 408 470 36,000  Level Denver Center
Sat 06:38:11 PM 39.3117 -107.3256 249° West 409 471 36,000  Level Denver Center
Sat 06:39:12 PM 39.2794 -107.4344 249° West 406 467 36,000  Level Denver Center
Sat 06:40:14 PM 39.2269 -107.6083 249° West 404 465 36,000 -194 Level Denver Center
Sat 06:41:16 PM 39.1878 -107.7383 249° West 407 468 35,600 -683 Descending Denver Center
Sat 06:42:17 PM 39.1483 -107.8664 248° West 403 464 34,600 -780 Descending Denver Center
Sat 06:43:19 PM 39.1031 -108.0175 249° West 403 464 34,000 -290 Descending Denver Center
Sat 06:44:21 PM 39.0642 -108.1458 249° West 401 461 34,000  Level Denver Center
Sat 06:45:22 PM 39.0161 -108.2958 248° West 405 466 34,000  Level Denver Center
Sat 06:46:24 PM 38.9742 -108.4333 249° West 428 493 34,000  Level Denver Center
Sat 06:47:25 PM 38.9333 -108.5694 249° West 423 487 34,000  Level Denver Center
Sat 06:48:27 PM 38.8839 -108.7264 248° West 427 491 34,000  Level Denver Center
Sat 06:49:29 PM 38.8408 -108.8622 248° West 428 493 34,000  Level Denver Center
Sat 06:50:30 PM 38.7917 -109.0211 248° West 428 493 34,000  Level Denver Center
Sat 06:51:32 PM 38.7486 -109.1556 248° West 426 490 34,000  Level Denver Center
Sat 06:52:33 PM 38.7061 -109.2906 248° West 426 490 34,000  Level Denver Center
Sat 06:53:35 PM 38.6567 -109.4458 248° West 421 484 34,000  Level Denver Center
Sat 06:54:36 PM 38.6136 -109.5764 247° West 415 478 34,000  Level Denver Center
Sat 06:55:38 PM 38.5642 -109.7264 247° West 410 472 34,000  Level Denver Center
Sat 06:56:40 PM 38.5225 -109.8569 248° West 413 475 34,000  Level Denver Center
Sat 06:57:41 PM 38.4808 -109.9831 247° West 405 466 34,000  Level Denver Center
Sat 06:58:41 PM 38.4331 -110.1350 248° West 409 471 34,000  Level Salt Lake Center
Sat 06:59:42 PM 38.3911 -110.2619 247° West 408 470 34,000 -146 Level Salt Lake Center
Sat 07:00:44 PM 38.3492 -110.3889 247° West 406 467 33,700 -683 Descending Salt Lake Center
Sat 07:01:45 PM 38.2997 -110.5361 247° West 406 467 32,600 -976 Descending Salt Lake Center
Sat 07:02:47 PM 38.2550 -110.6650 246° West 412 474 31,700 -976 Descending Salt Lake Center
Sat 07:03:48 PM 38.2033 -110.8175 247° West 419 482 30,600 -976 Descending Salt Lake Center
Sat 07:04:50 PM 38.1481 -110.9428 241° Southwest 424 488 29,700 -878 Descending Salt Lake Center
Sat 07:05:51 PM 38.0764 -111.0833 237° Southwest 430 495 28,800 -836 Descending Salt Lake Center
Sat 07:06:52 PM 38.0131 -111.2167 239° Southwest 438 504 28,000 -390 Descending Salt Lake Center
Sat 07:07:54 PM 37.9497 -111.3481 239° Southwest 438 504 28,000  Level Salt Lake Center
Sat 07:08:55 PM 37.8864 -111.4764 238° Southwest 433 498 28,000  Level Salt Lake Center
Sat 07:09:57 PM 37.8253 -111.6058 239° Southwest 430 495 28,000  Level Salt Lake Center
Sat 07:10:58 PM 37.7633 -111.7339 239° Southwest 428 493 28,000  Level Salt Lake Center
Sat 07:11:59 PM 37.7000 -111.8628 238° Southwest 432 497 28,000  Level Salt Lake Center
Sat 07:13:01 PM 37.6364 -111.9919 238° Southwest 433 498 28,000  Level Salt Lake Center
Sat 07:14:02 PM 37.5725 -112.1228 238° Southwest 437 503 28,000  Level Salt Lake Center
Sat 07:14:59 PM 37.5064 -112.2536 238° Southwest 439 505 28,000  Level Los Angeles Center
Sat 07:16:00 PM 37.4422 -112.3850 238° Southwest 438 504 28,000  Level Los Angeles Center
Sat 07:17:02 PM 37.3775 -112.5147 238° Southwest 435 501 28,000  Level Los Angeles Center
Sat 07:18:04 PM 37.3125 -112.6439 238° Southwest 434 499 28,000  Level Los Angeles Center
Sat 07:19:06 PM 37.2494 -112.7683 238° Southwest 422 486 28,000 -683 Level Los Angeles Center
Sat 07:20:07 PM 37.1819 -112.9044 238° Southwest 386 444 26,600 -1,415 Descending Los Angeles Center
Sat 07:21:09 PM 37.1289 -113.0097 238° Southwest 366 421 25,100 -774 Descending Los Angeles Center
Sat 07:22:11 PM 37.0767 -113.1125 238° Southwest 354 407 25,000 -48 Descending Los Angeles Center
Sat 07:23:13 PM 37.0244 -113.2156 238° Southwest 351 404 25,000 -146 Level Los Angeles Center
Sat 07:24:14 PM 36.9706 -113.3206 237° Southwest 354 407 24,700 -683 Descending Los Angeles Center
Sat 07:25:16 PM 36.9142 -113.4303 237° Southwest 364 419 23,600 -1,258 Descending Los Angeles Center
Sat 07:26:18 PM 36.8608 -113.5333 237° Southwest 360 414 22,100 -976 Descending Los Angeles Center
Sat 07:27:19 PM 36.8086 -113.6344 237° Southwest 350 403 21,600 -946 Descending Los Angeles Center
Sat 07:29:22 PM 36.7106 -113.8500 240° Southwest 322 371 19,200 -1,265 Descending Los Angeles Center
Sat 07:30:24 PM 36.6717 -113.9467 243° Southwest 313 360 17,700 -1,147 Descending Los Angeles Center
Sat 07:31:38 PM 36.6122 -114.0561 236° Southwest 321 369 16,600 -926 Descending Los Angeles Center
Sat 07:32:40 PM 36.5642 -114.1514 238° Southwest 325 374 15,600 -780 Descending Los Angeles Center
Sat 07:33:41 PM 36.5164 -114.2456 238° Southwest 320 368 15,000 -683 Descending Los Angeles Center
Sat 07:34:43 PM 36.4672 -114.3369 236° Southwest 319 367 14,200 -1,043 Descending Los Angeles Center
Sat 07:35:36 PM 36.4197 -114.4311 238° Southwest 303 349 13,000 -632 Descending Los Angeles Center
Sat 07:36:37 PM 36.3608 -114.4967 222° Southwest 294 338 13,000 -188 Level Los Angeles Center
Sat 07:37:44 PM 36.2808 -114.5158 191° South 269 310 12,600 -738 Descending Los Angeles Center
Sat 07:38:39 PM 36.2311 -114.5647 218° Southwest 249 287 11,500 -1,138 Descending Los Angeles Center
Sat 07:39:40 PM 36.1783 -114.6200 220° Southwest 252 290 10,400 -1,119 Descending Los Angeles Center
Sat 07:40:53 PM 36.1283 -114.6892 228° Southwest 238 274 9,000 -1,164 Descending Los Angeles Center
Sat 07:41:54 PM 36.1025 -114.7761 250° West 245 282 7,800 -1,091 Descending Los Angeles Center
Sat 07:42:54 PM 36.0817 -114.8575 252° West 245 282 6,800 -850 Descending Los Angeles Center
Sat 07:43:54 PM 36.0736 -114.9294 262° West 200 230 6,100 -1,091 Descending Los Angeles Center
Sat 07:44:55 PM 36.0731 -114.9961 269° West 183 211 4,600 -1,328 Descending Los Angeles Center
Sat 07:45:56 PM 36.0733 -115.0467 270° West 150 173 3,400 -984 Descending Los Angeles Center
Sat 07:46:57 PM 36.0742 -115.0997 271° West 150 173 2,600 -605 Descending Los Angeles Center
Sat 07:48:05 PM 36.0733 -115.1508 269° West 150 173 2,100 -441 Descending Los Angeles Center

Login

Don't have an account? Register now (free) for customized features, flight alerts, and more!